Terminal Aerodrome Forecast
Issued by NWS

Home | Current Version | Previous Version | Text Only | Print | Product List | Glossary On
Versions: 1 2 3 4 5 6 7 8 9 10 11 12 13 14 15 16 17 18 19 20 21 22
000
FTUS44 KOUN 021739
TAFLAW
TAF
KLAW 021739Z 0218/0318 20016KT P6SM FEW060 BKN250
      TEMPO 0219/0222 5SM -TSRA BKN050CB OVC250
     FM030100 16008KT P6SM SCT050 OVC200
     FM030600 VRB05KT P6SM BKN050
      TEMPO 0306/0310 3SM -TSRA OVC040CB
     FM031300 22007KT P6SM SCT050=

USA.gov is the U.S. government's official web portal to all federal, state and local government web resources and services.